createdAt,value
2023-03-06T00:02:32.000Z,361.00
2023-03-06T00:06:31.948Z,364.00
2023-03-06T00:10:31.967Z,365.00
2023-03-06T00:14:31.866Z,364.00
2023-03-06T00:18:31.836Z,363.00
2023-03-06T00:22:31.913Z,358.00
2023-03-06T00:26:32.149Z,358.00
2023-03-06T00:30:32.348Z,360.00
2023-03-06T00:34:32.563Z,362.00
2023-03-06T00:38:32.716Z,364.00
2023-03-06T00:42:32.915Z,365.00
2023-03-06T00:46:33.043Z,368.00
2023-03-06T00:50:33.235Z,364.00
2023-03-06T00:54:33.401Z,363.00
2023-03-06T00:58:33.564Z,359.00
2023-03-06T01:02:33.734Z,361.00
2023-03-06T01:06:33.781Z,361.00
2023-03-06T01:10:33.837Z,360.00
2023-03-06T01:14:33.977Z,363.00
2023-03-06T01:18:34.138Z,366.00
2023-03-06T01:22:34.169Z,366.00
2023-03-06T01:26:34.326Z,363.00
2023-03-06T01:30:34.400Z,363.00
2023-03-06T01:34:34.461Z,365.00
2023-03-06T01:38:34.577Z,362.00
2023-03-06T01:42:34.627Z,362.00
2023-03-06T01:46:34.705Z,368.00
2023-03-06T01:50:34.736Z,365.00
2023-03-06T01:54:34.810Z,366.00
2023-03-06T01:58:34.865Z,370.00
2023-03-06T02:02:34.980Z,370.00
2023-03-06T02:06:34.972Z,371.00
2023-03-06T02:10:35.011Z,366.00
2023-03-06T02:14:35.078Z,362.00
2023-03-06T02:18:35.096Z,361.00
2023-03-06T02:22:35.122Z,364.00
2023-03-06T02:26:35.090Z,366.00
2023-03-06T02:30:35.199Z,368.00
2023-03-06T02:34:35.171Z,364.00
2023-03-06T02:38:35.194Z,361.00
2023-03-06T02:42:35.272Z,367.00
2023-03-06T02:46:35.311Z,368.00
2023-03-06T02:50:35.280Z,368.00
2023-03-06T02:54:35.318Z,362.00
2023-03-06T02:58:35.348Z,363.00
2023-03-06T03:02:35.348Z,370.00
2023-03-06T03:06:35.345Z,364.00
2023-03-06T03:10:35.343Z,363.00
2023-03-06T03:14:35.383Z,358.00
2023-03-06T03:18:35.468Z,360.00
2023-03-06T03:22:35.460Z,364.00
2023-03-06T03:26:35.522Z,363.00
2023-03-06T03:30:35.600Z,363.00
2023-03-06T03:34:35.650Z,361.00
2023-03-06T03:38:35.651Z,362.00
2023-03-06T03:42:35.716Z,369.00
2023-03-06T03:46:35.771Z,365.00
2023-03-06T03:50:35.747Z,361.00
2023-03-06T03:54:35.727Z,358.00
2023-03-06T03:58:35.738Z,354.00
2023-03-06T04:02:35.678Z,358.00
2023-03-06T04:06:35.693Z,359.00
2023-03-06T04:10:35.694Z,362.00
2023-03-06T04:14:35.736Z,363.00
2023-03-06T04:18:35.729Z,361.00
2023-03-06T04:22:35.754Z,363.00
2023-03-06T04:26:35.768Z,359.00
2023-03-06T04:30:35.845Z,364.00
2023-03-06T04:34:35.827Z,367.00
2023-03-06T04:38:35.926Z,364.00
2023-03-06T04:42:35.932Z,362.00
2023-03-06T04:46:35.952Z,356.00
2023-03-06T04:50:35.938Z,355.00
2023-03-06T04:54:35.920Z,358.00
2023-03-06T04:58:35.938Z,358.00
2023-03-06T05:02:35.917Z,359.00
2023-03-06T05:06:35.920Z,356.00
2023-03-06T05:10:35.948Z,361.00
2023-03-06T05:14:36.041Z,370.00
2023-03-06T05:18:36.078Z,373.00
2023-03-06T05:22:36.118Z,379.00
2023-03-06T05:26:36.186Z,375.00
2023-03-06T05:30:36.213Z,378.00
2023-03-06T05:34:36.237Z,378.00
2023-03-06T05:38:36.190Z,378.00
2023-03-06T05:42:36.180Z,377.00
2023-03-06T05:46:36.188Z,384.00
2023-03-06T05:50:36.136Z,385.00
2023-03-06T05:54:36.114Z,382.00
2023-03-06T05:58:36.117Z,378.00
2023-03-06T06:02:36.140Z,377.00
2023-03-06T06:06:36.110Z,375.00
2023-03-06T06:10:36.034Z,374.00
2023-03-06T06:14:36.048Z,373.00
2023-03-06T06:18:36.048Z,375.00
2023-03-06T06:22:35.990Z,376.00
2023-03-06T06:26:36.104Z,379.00
2023-03-06T06:30:36.148Z,383.00
2023-03-06T06:34:36.160Z,495.00
2023-03-06T06:38:36.675Z,528.00
2023-03-06T06:42:39.884Z,553.00
2023-03-06T06:50:37.191Z,545.00
2023-03-06T06:54:36.404Z,535.00
2023-03-06T06:58:36.548Z,543.00
2023-03-06T07:02:36.532Z,550.00
2023-03-06T07:06:36.483Z,571.00
2023-03-06T07:10:36.448Z,585.00
2023-03-06T07:14:36.628Z,605.00
2023-03-06T07:18:36.405Z,646.00
2023-03-06T07:22:49.951Z,639.00
2023-03-06T07:26:37.640Z,648.00
2023-03-06T07:30:36.224Z,647.00
2023-03-06T07:34:36.293Z,634.00
2023-03-06T07:38:36.412Z,709.00
2023-03-06T07:42:36.488Z,746.00
2023-03-06T07:46:36.600Z,705.00
2023-03-06T07:50:37.123Z,687.00
2023-03-06T07:54:37.171Z,640.00
2023-03-06T07:58:36.906Z,622.00
2023-03-06T08:02:37.180Z,795.00
2023-03-06T08:06:37.095Z,627.00
2023-03-06T08:10:37.165Z,879.00
2023-03-06T08:14:37.207Z,725.00
2023-03-06T08:18:37.272Z,717.00
2023-03-06T08:22:37.660Z,712.00
2023-03-06T08:26:37.354Z,741.00
2023-03-06T08:30:37.385Z,955.00
2023-03-06T08:34:37.520Z,795.00
2023-03-06T08:38:37.600Z,764.00
2023-03-06T08:42:38.151Z,755.00
2023-03-06T08:46:38.254Z,737.00
2023-03-06T08:50:38.155Z,695.00
2023-03-06T08:54:38.184Z,670.00
2023-03-06T08:58:38.211Z,637.00
2023-03-06T09:02:38.264Z,625.00
2023-03-06T09:06:38.254Z,594.00
2023-03-06T09:10:38.355Z,579.00
2023-03-06T09:14:38.308Z,571.00
2023-03-06T09:18:38.386Z,573.00
2023-03-06T09:22:38.426Z,575.00
2023-03-06T09:26:47.666Z,623.00
2023-03-06T09:30:39.410Z,573.00
2023-03-06T09:34:38.377Z,493.00
2023-03-06T09:38:38.394Z,474.00
2023-03-06T09:42:38.504Z,500.00
2023-03-06T09:46:38.686Z,578.00
2023-03-06T09:50:38.711Z,572.00
2023-03-06T09:54:38.863Z,570.00
2023-03-06T09:58:39.147Z,554.00
2023-03-06T10:02:38.935Z,553.00
2023-03-06T10:06:38.770Z,551.00
2023-03-06T10:10:39.159Z,558.00
2023-03-06T10:14:39.179Z,631.00
2023-03-06T10:18:38.651Z,596.00
2023-03-06T10:22:38.701Z,580.00
2023-03-06T10:26:38.722Z,568.00
2023-03-06T10:30:38.636Z,551.00
2023-03-06T10:34:38.517Z,649.00
2023-03-06T10:38:38.515Z,643.00
2023-03-06T10:42:38.666Z,644.00
2023-03-06T10:46:38.565Z,723.00
2023-03-06T10:50:38.358Z,670.00
2023-03-06T10:54:38.346Z,617.00
2023-03-06T10:58:38.310Z,649.00
2023-03-06T11:02:38.246Z,654.00
2023-03-06T11:06:38.215Z,661.00
2023-03-06T11:10:46.278Z,672.00
2023-03-06T11:14:38.225Z,675.00
2023-03-06T11:18:38.182Z,668.00
2023-03-06T11:22:38.726Z,622.00
2023-03-06T11:26:39.446Z,635.00
2023-03-06T11:30:38.267Z,705.00
2023-03-06T11:34:38.359Z,695.00
2023-03-06T11:38:38.319Z,664.00
2023-03-06T11:42:38.236Z,644.00
2023-03-06T11:46:38.793Z,622.00
2023-03-06T11:50:38.159Z,566.00
2023-03-06T11:54:38.093Z,601.00
2023-03-06T11:58:38.244Z,552.00
2023-03-06T12:02:38.025Z,585.00
2023-03-06T12:06:38.256Z,591.00
2023-03-06T12:10:37.974Z,586.00
2023-03-06T12:14:37.936Z,586.00
2023-03-06T12:18:38.237Z,522.00
2023-03-06T12:22:38.734Z,570.00
2023-03-06T12:26:38.190Z,573.00
2023-03-06T12:30:38.169Z,571.00
2023-03-06T12:34:38.140Z,581.00
2023-03-06T12:38:38.071Z,585.00
2023-03-06T12:42:38.308Z,578.00
2023-03-06T12:46:38.036Z,565.00
2023-03-06T12:50:38.093Z,555.00
2023-03-06T12:54:37.964Z,553.00
2023-03-06T12:58:37.899Z,548.00
2023-03-06T13:02:37.941Z,569.00
2023-03-06T13:06:44.957Z,638.00
2023-03-06T13:10:38.799Z,633.00
2023-03-06T13:14:42.356Z,633.00
2023-03-06T13:18:38.705Z,605.00
2023-03-06T13:22:37.755Z,579.00
2023-03-06T13:26:38.044Z,584.00
2023-03-06T13:30:38.276Z,590.00
2023-03-06T13:34:38.211Z,603.00
2023-03-06T13:38:38.192Z,624.00
2023-03-06T13:42:38.141Z,625.00
2023-03-06T13:46:38.117Z,620.00
2023-03-06T13:50:38.045Z,633.00
2023-03-06T13:54:37.982Z,653.00
2023-03-06T13:58:37.887Z,646.00
2023-03-06T14:02:37.933Z,558.00
2023-03-06T14:06:37.866Z,534.00
2023-03-06T14:10:37.836Z,518.00
2023-03-06T14:14:37.797Z,523.00
2023-03-06T14:18:37.725Z,529.00
2023-03-06T14:22:37.707Z,534.00
2023-03-06T14:26:37.717Z,525.00
2023-03-06T14:30:37.679Z,510.00
2023-03-06T14:34:37.628Z,489.00
2023-03-06T14:38:37.608Z,501.00
2023-03-06T14:42:37.804Z,539.00
2023-03-06T14:46:37.834Z,530.00
2023-03-06T14:50:37.452Z,580.00
2023-03-06T14:54:37.376Z,604.00
2023-03-06T14:58:37.400Z,586.00
2023-03-06T15:02:37.417Z,527.00
2023-03-06T15:06:37.306Z,515.00
2023-03-06T15:10:37.408Z,504.00
2023-03-06T15:14:37.589Z,499.00
2023-03-06T15:18:37.555Z,495.00
2023-03-06T15:22:37.564Z,474.00
2023-03-06T15:26:37.482Z,483.00
2023-03-06T15:30:37.446Z,486.00
2023-03-06T15:34:37.910Z,487.00
2023-03-06T15:38:37.342Z,494.00
2023-03-06T15:42:37.339Z,505.00
2023-03-06T15:46:37.321Z,509.00
2023-03-06T15:50:37.354Z,507.00
2023-03-06T15:54:37.264Z,501.00
2023-03-06T15:58:37.280Z,496.00
2023-03-06T16:02:37.253Z,495.00
2023-03-06T16:06:43.820Z,494.00
2023-03-06T16:10:37.205Z,494.00
2023-03-06T16:14:37.127Z,490.00
2023-03-06T16:18:37.099Z,489.00
2023-03-06T16:22:37.071Z,486.00
2023-03-06T16:26:36.981Z,481.00
2023-03-06T16:30:37.027Z,481.00
2023-03-06T16:34:37.111Z,481.00
2023-03-06T16:38:37.356Z,478.00
2023-03-06T16:42:37.469Z,471.00
2023-03-06T16:46:37.656Z,469.00
2023-03-06T16:50:37.670Z,465.00
2023-03-06T16:54:37.766Z,464.00
2023-03-06T16:58:37.679Z,462.00
2023-03-06T17:02:37.735Z,459.00
2023-03-06T17:06:37.664Z,457.00
2023-03-06T17:10:37.667Z,453.00
2023-03-06T17:14:37.664Z,453.00
2023-03-06T17:18:37.616Z,455.00
2023-03-06T17:22:37.575Z,457.00
2023-03-06T17:26:37.570Z,452.00
2023-03-06T17:30:37.594Z,450.00
2023-03-06T17:34:37.621Z,447.00
2023-03-06T17:38:37.603Z,449.00
2023-03-06T17:42:37.608Z,450.00
2023-03-06T17:46:37.706Z,447.00
2023-03-06T17:50:37.673Z,446.00
2023-03-06T17:54:37.690Z,450.00
2023-03-06T17:58:37.730Z,445.00
2023-03-06T18:02:37.784Z,449.00
2023-03-06T18:06:37.789Z,444.00
2023-03-06T18:10:37.860Z,444.00
2023-03-06T18:14:37.900Z,444.00
2023-03-06T18:18:37.948Z,444.00
2023-03-06T18:22:37.977Z,445.00
2023-03-06T18:26:38.033Z,442.00
2023-03-06T18:30:38.159Z,440.00
2023-03-06T18:34:38.186Z,434.00
2023-03-06T18:38:38.190Z,431.00
2023-03-06T18:42:38.289Z,429.00
2023-03-06T18:46:38.430Z,427.00
2023-03-06T18:50:38.497Z,426.00
2023-03-06T18:54:38.571Z,436.00
2023-03-06T18:58:38.633Z,438.00
2023-03-06T19:02:38.740Z,431.00
2023-03-06T19:06:38.831Z,431.00
2023-03-06T19:10:38.879Z,433.00
2023-03-06T19:14:38.920Z,428.00
2023-03-06T19:18:38.995Z,424.00
2023-03-06T19:22:39.082Z,423.00
2023-03-06T19:26:39.135Z,429.00
2023-03-06T19:30:39.254Z,428.00
2023-03-06T19:34:39.389Z,430.00
2023-03-06T19:38:39.476Z,428.00
2023-03-06T19:42:39.650Z,432.00
2023-03-06T19:46:39.767Z,436.00
2023-03-06T19:50:39.885Z,436.00
2023-03-06T19:54:40.086Z,434.00
2023-03-06T19:58:40.195Z,435.00
2023-03-06T20:02:40.282Z,433.00
2023-03-06T20:06:40.419Z,430.00
2023-03-06T20:10:40.575Z,435.00
2023-03-06T20:14:40.773Z,426.00
2023-03-06T20:18:40.855Z,426.00
2023-03-06T20:22:41.025Z,424.00
2023-03-06T20:26:41.292Z,429.00
2023-03-06T20:30:41.285Z,422.00
2023-03-06T20:34:41.408Z,421.00
2023-03-06T20:38:41.541Z,426.00
2023-03-06T20:42:41.699Z,426.00
2023-03-06T20:46:42.006Z,425.00
2023-03-06T20:50:41.972Z,423.00
2023-03-06T20:54:42.065Z,422.00
2023-03-06T20:58:42.213Z,422.00
2023-03-06T21:02:42.362Z,422.00
2023-03-06T21:06:42.485Z,422.00
2023-03-06T21:10:42.654Z,424.00
2023-03-06T21:14:42.815Z,421.00
2023-03-06T21:18:42.960Z,419.00
2023-03-06T21:22:43.075Z,419.00
2023-03-06T21:26:43.242Z,419.00
2023-03-06T21:30:43.379Z,419.00
2023-03-06T21:34:43.588Z,418.00
2023-03-06T21:38:43.732Z,414.00
2023-03-06T21:42:43.832Z,412.00
2023-03-06T21:46:43.980Z,408.00
2023-03-06T21:50:44.128Z,408.00
2023-03-06T21:54:44.322Z,410.00
2023-03-06T21:58:44.500Z,412.00
2023-03-06T22:02:44.690Z,408.00
2023-03-06T22:06:44.807Z,403.00
2023-03-06T22:10:46.956Z,401.00
2023-03-06T22:14:44.987Z,403.00
2023-03-06T22:18:44.885Z,403.00
2023-03-06T22:22:44.853Z,405.00
2023-03-06T22:26:44.842Z,409.00
2023-03-06T22:30:44.810Z,409.00
2023-03-06T22:34:44.736Z,409.00
2023-03-06T22:38:44.726Z,411.00
2023-03-06T22:42:44.690Z,406.00
2023-03-06T22:46:44.663Z,404.00
2023-03-06T22:50:44.588Z,408.00
2023-03-06T22:54:44.578Z,406.00
2023-03-06T22:58:44.794Z,406.00
2023-03-06T23:02:44.884Z,405.00
2023-03-06T23:06:45.537Z,405.00
2023-03-06T23:10:45.237Z,410.00
2023-03-06T23:14:45.445Z,408.00
2023-03-06T23:18:45.609Z,408.00
2023-03-06T23:22:45.983Z,412.00
2023-03-06T23:26:45.960Z,413.00
2023-03-06T23:30:46.165Z,409.00
2023-03-06T23:34:46.442Z,408.00
2023-03-06T23:38:46.567Z,408.00
2023-03-06T23:42:46.734Z,405.00
2023-03-06T23:46:46.935Z,405.00
2023-03-06T23:50:47.147Z,410.00
2023-03-06T23:54:47.295Z,406.00
2023-03-06T23:58:47.517Z,406.00
